Time;durP1;ratioP1;P1;durP2;ratioP2;P2;SDS_P1;SDS_P2;PMS_P1;PMS_P2;Temp;Humidity;BMP_temperature;BMP_pressure;BME280_temperature;BME280_humidity;BME280_pressure;Samples;Min_cycle;Max_cycle;Signal;HPM_P1;HPM_P2
2021/04/24 00:01:55;;;;;;;6.65;2.65;;;;;;;5.78;50.91;101549.03;10195395;28;20231;-72
2021/04/24 00:06:57;;;;;;;5.20;2.67;;;;;;;5.68;51.29;101547.72;10191292;28;20250;-73
2021/04/24 00:12:00;;;;;;;5.50;3.42;;;;;;;5.61;51.52;101551.56;10195718;28;20263;-73
2021/04/24 00:17:03;;;;;;;6.20;2.53;;;;;;;5.52;52.09;101546.63;10162225;28;20235;-72
2021/04/24 00:22:05;;;;;;;5.28;2.78;;;;;;;5.55;51.85;101547.34;10153759;28;20232;-74
2021/04/24 00:27:08;;;;;;;7.93;2.78;;;;;;;5.56;51.97;101548.22;10156190;28;20235;-74
2021/04/24 00:32:10;;;;;;;5.57;2.97;;;;;;;5.53;51.87;101541.19;10155231;28;20251;-73
2021/04/24 00:37:12;;;;;;;6.18;3.55;;;;;;;5.52;52.14;101543.94;10135869;28;589380;-73
2021/04/24 00:42:15;;;;;;;6.18;3.40;;;;;;;5.49;52.42;101540.47;10156635;28;20240;-72
2021/04/24 00:47:18;;;;;;;6.75;3.30;;;;;;;5.38;52.47;101536.53;10158895;28;20322;-73
2021/04/24 00:52:20;;;;;;;6.85;3.42;;;;;;;5.31;52.45;101533.22;10157091;28;20263;-74
2021/04/24 00:57:23;;;;;;;6.90;3.50;;;;;;;5.05;53.42;101540.47;10154185;28;20748;-73
2021/04/24 01:02:25;;;;;;;5.53;3.25;;;;;;;4.81;54.15;101536.94;10154107;28;20284;-72
2021/04/24 01:07:27;;;;;;;8.18;3.47;;;;;;;4.72;54.42;101536.44;10152337;28;20366;-72
2021/04/24 01:12:30;;;;;;;7.05;3.22;;;;;;;4.76;54.24;101533.56;10154870;28;20247;-73
2021/04/24 01:17:32;;;;;;;11.30;3.28;;;;;;;4.61;54.38;101532.38;10190510;28;20255;-72
2021/04/24 01:22:35;;;;;;;8.43;3.47;;;;;;;4.57;54.77;101530.75;10196841;28;20241;-72
2021/04/24 01:27:37;;;;;;;4.68;3.38;;;;;;;4.65;54.72;101532.25;10189852;28;20249;-73
2021/04/24 01:32:39;;;;;;;9.30;3.08;;;;;;;4.62;54.78;101525.25;10192772;28;20745;-72
2021/04/24 01:37:43;;;;;;;7.57;3.50;;;;;;;4.51;55.34;101530.97;10191850;28;20252;-73
2021/04/24 01:42:46;;;;;;;8.35;3.30;;;;;;;4.28;56.09;101531.84;10191572;28;20254;-72
2021/04/24 01:47:48;;;;;;;8.82;3.50;;;;;;;4.01;56.52;101524.88;10193391;28;20253;-72
2021/04/24 01:52:52;;;;;;;8.43;3.40;;;;;;;3.74;57.89;101524.91;10198129;28;20680;-72
2021/04/24 01:57:57;;;;;;;6.43;3.55;;;;;;;3.82;57.96;101530.81;10194293;28;20238;-73
2021/04/24 02:03:01;;;;;;;7.40;3.33;;;;;;;3.78;58.35;101530.97;10197543;28;20281;-72
2021/04/24 02:08:07;;;;;;;7.00;3.27;;;;;;;3.75;58.18;101515.13;10195695;28;20251;-72
2021/04/24 02:13:10;;;;;;;5.43;3.50;;;;;;;3.79;58.00;101512.31;10191893;28;20244;-72
2021/04/24 02:18:13;;;;;;;8.95;3.63;;;;;;;4.04;58.34;101514.97;10153593;28;20289;-71
2021/04/24 02:23:16;;;;;;;9.97;3.87;;;;;;;4.08;58.11;101510.41;10156572;28;22045;-71
2021/04/24 02:28:18;;;;;;;8.85;3.72;;;;;;;4.00;58.13;101512.47;10155184;28;21420;-71
2021/04/24 02:33:20;;;;;;;7.47;3.80;;;;;;;3.99;58.60;101514.28;10145002;28;20511;-71
2021/04/24 02:38:24;;;;;;;5.93;3.10;;;;;;;3.95;58.96;101515.31;10143614;28;20239;-71
2021/04/24 02:43:26;;;;;;;12.00;3.85;;;;;;;3.99;58.64;101514.28;10146114;28;20247;-71
2021/04/24 02:48:28;;;;;;;7.75;3.38;;;;;;;4.12;58.54;101517.38;10150711;28;20747;-71
2021/04/24 02:53:31;;;;;;;9.38;3.83;;;;;;;4.20;58.79;101525.03;10145206;28;20243;-72
2021/04/24 02:58:33;;;;;;;6.30;3.47;;;;;;;4.18;58.68;101523.31;10138229;28;20256;-71
2021/04/24 03:03:35;;;;;;;9.18;3.78;;;;;;;4.26;59.35;101524.84;10140840;28;20625;-71
2021/04/24 03:08:38;;;;;;;9.37;3.93;;;;;;;4.31;59.06;101531.72;10139012;28;20710;-71
2021/04/24 03:13:40;;;;;;;8.83;4.10;;;;;;;4.19;59.36;101532.16;10142053;28;20249;-73
2021/04/24 03:18:42;;;;;;;11.10;4.28;;;;;;;4.27;59.42;101534.56;10179074;28;20749;-71
2021/04/24 03:23:44;;;;;;;6.32;3.70;;;;;;;4.31;59.70;101530.88;10180698;28;20254;-71
2021/04/24 03:28:47;;;;;;;10.60;4.55;;;;;;;4.36;59.97;101526.22;10183500;28;20242;-71
2021/04/24 03:33:49;;;;;;;12.15;4.57;;;;;;;4.34;60.42;101526.28;10188090;28;20254;-72
2021/04/24 03:38:53;;;;;;;8.82;4.47;;;;;;;4.38;59.83;101529.69;10186829;28;20278;-72
2021/04/24 03:43:55;;;;;;;8.50;4.60;;;;;;;4.26;60.67;101522.19;10189777;28;20236;-72
2021/04/24 03:48:57;;;;;;;10.27;4.40;;;;;;;4.24;61.09;101519.56;10194397;28;20254;-73
2021/04/24 03:53:59;;;;;;;8.63;4.40;;;;;;;4.13;61.54;101527.06;10192893;28;20260;-73
2021/04/24 03:59:02;;;;;;;7.22;3.42;;;;;;;4.04;61.43;101524.75;10192605;28;20238;-72
2021/04/24 04:04:05;;;;;;;9.50;4.87;;;;;;;3.89;61.80;101536.78;10194309;28;20230;-71
2021/04/24 04:09:07;;;;;;;8.67;4.50;;;;;;;3.98;61.37;101535.56;10185081;28;20242;-72
2021/04/24 04:14:09;;;;;;;10.50;4.38;;;;;;;3.93;61.36;101549.06;10176144;28;20236;-72
2021/04/24 04:19:11;;;;;;;10.57;4.75;;;;;;;4.02;61.33;101539.88;10144350;28;20246;-74
2021/04/24 04:24:14;;;;;;;8.90;5.03;;;;;;;4.14;61.33;101547.41;10145188;28;20235;-72
2021/04/24 04:29:16;;;;;;;9.73;4.20;;;;;;;4.13;61.28;101554.53;10143528;28;20594;-73
2021/04/24 04:34:18;;;;;;;11.23;4.95;;;;;;;4.21;61.40;101554.25;10143971;28;20907;-72
2021/04/24 04:39:21;;;;;;;10.70;4.68;;;;;;;4.39;61.64;101555.41;10146698;28;20254;-73
2021/04/24 04:44:22;;;;;;;12.57;5.18;;;;;;;4.39;61.62;101548.28;10141407;28;20253;-72
2021/04/24 04:49:25;;;;;;;11.65;5.03;;;;;;;4.20;62.55;101552.53;10143696;28;20235;-72
2021/04/24 04:54:27;;;;;;;10.32;4.82;;;;;;;4.17;63.05;101557.97;10141571;28;20247;-72
2021/04/24 04:59:29;;;;;;;11.20;5.60;;;;;;;4.17;63.19;101548.19;10142856;28;20252;-72
2021/04/24 05:04:31;;;;;;;11.80;4.70;;;;;;;4.21;63.28;101550.75;10142567;28;20243;-72
2021/04/24 05:09:34;;;;;;;15.30;5.72;;;;;;;4.38;62.73;101556.31;10145733;28;20251;-72
2021/04/24 05:14:37;;;;;;;13.02;5.00;;;;;;;4.34;62.91;101558.22;10152690;28;20239;-72
2021/04/24 05:19:39;;;;;;;9.27;4.07;;;;;;;4.40;62.78;101557.13;10178428;28;20260;-72
2021/04/24 05:24:41;;;;;;;8.65;4.53;;;;;;;4.42;63.24;101554.44;10181099;28;20243;-72
2021/04/24 05:29:43;;;;;;;11.23;5.45;;;;;;;4.59;62.92;101558.19;10181718;28;20247;-72
2021/04/24 05:34:47;;;;;;;10.50;4.93;;;;;;;4.70;62.34;101555.13;10182736;28;20238;-74
2021/04/24 05:39:52;;;;;;;12.75;4.93;;;;;;;4.81;62.70;101546.72;10184593;28;20242;-72
2021/04/24 05:45:10;;;;;;;15.95;6.88;;;;;;;5.05;62.20;101547.59;10185539;28;20240;-72
2021/04/24 05:50:13;;;;;;;15.52;5.07;;;;;;;5.08;62.35;101543.94;10177845;28;20252;-74
2021/04/24 05:55:17;;;;;;;11.25;5.68;;;;;;;5.24;62.21;101545.06;10175692;28;20247;-72
2021/04/24 06:00:21;;;;;;;14.73;5.53;;;;;;;5.55;61.63;101538.47;10178170;28;21443;-72
2021/04/24 06:05:23;;;;;;;8.80;5.60;;;;;;;5.62;61.19;101540.84;10178626;28;20231;-73
2021/04/24 06:10:26;;;;;;;12.18;5.18;;;;;;;5.84;60.75;101535.47;10181078;28;20257;-73
2021/04/24 06:15:28;;;;;;;13.90;5.32;;;;;;;6.13;60.84;101551.97;10175632;28;20982;-73
2021/04/24 06:20:30;;;;;;;12.38;5.82;;;;;;;6.32;60.13;101552.03;10137992;28;20243;-73
2021/04/24 06:25:33;;;;;;;13.20;5.90;;;;;;;6.39;59.90;101543.69;10140773;28;20287;-73
2021/04/24 06:30:35;;;;;;;9.65;5.53;;;;;;;6.46;60.06;101557.63;10161727;28;20245;-73
2021/04/24 06:35:37;;;;;;;15.70;5.45;;;;;;;6.94;59.38;101553.66;10162591;28;20244;-74
2021/04/24 06:40:40;;;;;;;12.15;4.93;;;;;;;7.36;58.37;101554.34;10141876;28;20287;-73
2021/04/24 06:45:42;;;;;;;12.77;5.80;;;;;;;7.83;57.84;101543.06;10126302;28;20371;-71
2021/04/24 06:50:44;;;;;;;11.95;4.63;;;;;;;7.50;57.72;101534.00;10149146;28;20250;-73
2021/04/24 06:55:47;;;;;;;10.05;5.13;;;;;;;7.67;56.98;101543.84;10141142;28;20278;-72
2021/04/24 07:00:49;;;;;;;9.65;4.97;;;;;;;7.62;57.13;101540.53;10120530;28;20249;-73
2021/04/24 07:05:52;;;;;;;13.75;5.82;;;;;;;7.80;56.97;101544.09;10146976;28;20252;-73
2021/04/24 07:10:55;;;;;;;10.95;5.57;;;;;;;8.25;56.52;101529.25;10143153;28;20250;-74
2021/04/24 07:16:02;;;;;;;10.02;4.75;;;;;;;8.76;55.61;101534.59;10162336;28;20250;-71
2021/04/24 07:21:05;;;;;;;10.10;4.70;;;;;;;9.35;53.97;101535.72;10172881;28;20253;-72
2021/04/24 07:26:09;;;;;;;12.00;4.88;;;;;;;9.59;52.65;101527.19;10167555;28;20243;-73
2021/04/24 07:31:13;;;;;;;10.77;4.53;;;;;;;10.01;51.40;101528.28;10152838;28;20858;-73
2021/04/24 07:36:16;;;;;;;11.77;4.85;;;;;;;10.71;50.04;101526.59;10175643;28;20282;-74
2021/04/24 07:41:19;;;;;;;6.93;3.90;;;;;;;10.64;48.70;101527.97;10166599;28;20242;-74
2021/04/24 07:46:20;;;;;;;8.38;3.90;;;;;;;10.65;48.67;101527.00;10174974;28;20648;-74
2021/04/24 07:51:22;;;;;;;7.55;3.47;;;;;;;9.94;49.07;101517.06;10162210;28;21288;-74
2021/04/24 07:56:25;;;;;;;9.50;4.07;;;;;;;9.81;50.18;101519.56;10155876;28;20261;-74
2021/04/24 08:01:27;;;;;;;9.60;4.15;;;;;;;10.42;49.22;101523.03;10129107;28;20247;-73
2021/04/24 08:06:29;;;;;;;9.65;4.38;;;;;;;10.46;47.84;101526.44;10149635;28;20235;-74
2021/04/24 08:11:32;;;;;;;7.50;4.00;;;;;;;10.55;47.57;101523.16;10182512;28;20242;-74
2021/04/24 08:16:35;;;;;;;5.72;3.38;;;;;;;10.46;48.22;101523.75;10166392;28;20235;-73
2021/04/24 08:21:39;;;;;;;5.68;3.40;;;;;;;10.56;46.92;101520.38;10172155;28;20245;-75
2021/04/24 08:26:43;;;;;;;7.68;3.55;;;;;;;10.36;46.10;101520.75;10138777;28;20250;-74
2021/04/24 08:31:45;;;;;;;5.78;4.07;;;;;;;10.08;46.45;101517.09;10155929;28;20253;-74
2021/04/24 08:36:47;;;;;;;6.40;3.80;;;;;;;9.97;46.76;101529.44;10154984;28;20238;-74
2021/04/24 08:41:50;;;;;;;6.88;3.65;;;;;;;10.65;45.51;101529.69;10153848;28;20311;-74
2021/04/24 08:46:52;;;;;;;6.32;3.30;;;;;;;11.22;44.55;101526.06;10137618;28;20236;-74
2021/04/24 08:51:55;;;;;;;5.65;3.65;;;;;;;12.28;42.80;101527.81;10162219;28;20239;-74
2021/04/24 08:56:57;;;;;;;6.97;3.35;;;;;;;12.70;42.72;101527.56;10157226;28;20250;-74
2021/04/24 09:01:59;;;;;;;7.93;3.28;;;;;;;14.66;38.57;101515.38;10172806;28;20242;-74
2021/04/24 09:07:02;;;;;;;6.22;2.83;;;;;;;14.28;36.07;101519.25;10143226;28;20265;-75
2021/04/24 09:12:06;;;;;;;5.45;3.22;;;;;;;12.62;39.26;101519.19;10163685;28;20252;-74
2021/04/24 09:17:08;;;;;;;4.90;2.45;;;;;;;13.26;38.65;101512.63;10197535;28;20254;-74
2021/04/24 09:22:18;;;;;;;4.32;3.00;;;;;;;14.19;37.70;101517.28;10190824;28;20288;-73
2021/04/24 09:27:41;;;;;;;7.03;3.35;;;;;;;13.67;38.49;101515.91;10157774;28;20247;-74
2021/04/24 09:32:43;;;;;;;7.55;3.45;;;;;;;13.34;39.27;101514.75;10150218;28;20665;-73
2021/04/24 09:37:54;;;;;;;7.97;3.38;;;;;;;12.86;38.61;101513.84;10152260;28;20243;-74
2021/04/24 09:43:01;;;;;;;9.73;3.55;;;;;;;12.89;39.10;101502.81;10153755;28;20231;-75
2021/04/24 09:48:04;;;;;;;6.35;4.07;;;;;;;13.23;37.92;101512.00;10178257;28;20248;-74
2021/04/24 09:53:12;;;;;;;8.60;4.05;;;;;;;13.67;37.78;101494.31;10194171;28;20251;-73
2021/04/24 09:58:35;;;;;;;11.93;4.75;;;;;;;12.35;41.37;101507.56;10169089;28;20245;-74
2021/04/24 10:03:39;;;;;;;10.38;4.35;;;;;;;12.64;41.19;101496.53;10157283;28;20227;-75
2021/04/24 10:08:41;;;;;;;11.05;4.65;;;;;;;12.94;40.95;101508.75;10157871;28;20248;-74
2021/04/24 10:13:44;;;;;;;6.63;4.22;;;;;;;11.96;41.27;101505.81;10163479;28;20313;-74
2021/04/24 10:18:47;;;;;;;8.05;3.92;;;;;;;12.59;39.20;101494.19;10213729;28;20251;-73
2021/04/24 10:23:49;;;;;;;9.70;3.60;;;;;;;14.37;37.02;101496.91;10169115;28;20247;-74
2021/04/24 10:28:54;;;;;;;4.45;3.65;;;;;;;13.34;36.56;101486.91;10175081;28;20242;-74
2021/04/24 10:33:59;;;;;;;7.15;3.47;;;;;;;12.63;37.60;101499.34;10163536;28;20239;-74
2021/04/24 10:39:01;;;;;;;8.45;4.00;;;;;;;13.22;37.45;101494.09;10185200;28;20242;-74
2021/04/24 10:44:06;;;;;;;5.20;3.78;;;;;;;13.84;36.18;101482.22;10164847;28;20255;-74
2021/04/24 10:49:30;;;;;;;8.82;5.10;;;;;;;15.95;34.40;101485.69;10167958;28;20260;-73
2021/04/24 10:54:37;;;;;;;7.57;4.00;;;;;;;16.48;31.95;101480.16;10165685;28;20615;-73
2021/04/24 10:59:53;;;;;;;10.38;4.13;;;;;;;14.23;36.55;101485.47;10179829;28;20252;-74
2021/04/24 11:04:55;;;;;;;10.50;4.13;;;;;;;15.74;35.65;101482.09;10170819;28;20242;-75
2021/04/24 11:10:29;;;;;;;5.65;4.20;;;;;;;16.54;33.40;101466.06;10183116;28;21864;-74
2021/04/24 11:15:33;;;;;;;7.85;4.70;;;;;;;17.20;32.66;101464.66;10210503;28;20247;-73
2021/04/24 11:20:54;;;;;;;5.80;3.95;;;;;;;18.12;30.96;101462.28;10202609;28;20235;-74
2021/04/24 11:25:56;;;;;;;14.20;4.28;;;;;;;17.99;29.96;101456.34;10201770;28;20720;-74
2021/04/24 11:31:01;;;;;;;10.15;4.93;;;;;;;17.95;30.12;101448.56;10199118;28;20236;-74
2021/04/24 11:36:21;;;;;;;8.98;4.53;;;;;;;18.80;28.74;101453.84;10172387;28;20240;-73
2021/04/24 11:41:27;;;;;;;6.65;4.43;;;;;;;19.34;28.05;101450.34;10119936;28;20244;-73
2021/04/24 11:46:35;;;;;;;9.65;4.85;;;;;;;19.27;28.36;101439.19;10137396;28;20246;-73
2021/04/24 11:51:44;;;;;;;7.82;4.30;;;;;;;17.16;30.98;101442.34;10106947;28;20253;-74
2021/04/24 11:56:47;;;;;;;8.02;4.50;;;;;;;17.21;31.06;101439.22;10106977;28;20235;-73
2021/04/24 12:01:51;;;;;;;8.05;4.18;;;;;;;18.35;27.87;101435.59;10108831;28;20235;-74
2021/04/24 12:07:08;;;;;;;10.15;4.55;;;;;;;19.56;27.16;101433.53;10154272;28;20310;-74
2021/04/24 12:12:10;;;;;;;8.80;4.60;;;;;;;19.56;27.88;101433.53;10269911;28;20242;-73
2021/04/24 12:17:15;;;;;;;5.68;3.75;;;;;;;19.02;27.26;101433.50;10298405;28;20239;-73
2021/04/24 12:22:20;;;;;;;6.78;4.10;;;;;;;20.12;25.96;101442.25;10267427;28;20239;-73
2021/04/24 12:27:27;;;;;;;8.40;4.57;;;;;;;19.52;27.07;101415.72;10266377;28;20593;-73
2021/04/24 12:32:35;;;;;;;6.35;3.97;;;;;;;18.78;27.88;101408.72;10272440;28;20243;-75
2021/04/24 12:37:39;;;;;;;9.10;4.55;;;;;;;17.98;29.14;101434.72;10273293;28;20289;-74
2021/04/24 12:42:41;;;;;;;6.28;4.28;;;;;;;17.91;29.12;101416.25;10285174;28;20242;-73
2021/04/24 12:47:50;;;;;;;8.95;4.75;;;;;;;18.46;28.85;101409.22;10273800;28;20763;-74
2021/04/24 12:52:56;;;;;;;7.50;5.20;;;;;;;17.71;29.67;101414.56;10271285;28;20925;-75
2021/04/24 12:58:00;;;;;;;7.82;4.80;;;;;;;17.72;28.97;101405.44;10272310;28;20833;-74
2021/04/24 13:03:21;;;;;;;5.55;4.50;;;;;;;17.00;29.58;101404.00;10270678;28;20227;-74
2021/04/24 13:08:23;;;;;;;8.90;4.60;;;;;;;17.62;29.30;101397.28;10270239;28;20254;-74
2021/04/24 13:13:24;;;;;;;8.15;4.43;;;;;;;17.96;28.94;101390.47;10271512;28;20248;-74
2021/04/24 13:18:32;;;;;;;8.45;4.93;;;;;;;16.55;30.30;101396.38;10347598;28;20251;-73
2021/04/24 13:23:34;;;;;;;9.32;4.43;;;;;;;17.29;30.13;101389.63;10331087;28;20234;-73
2021/04/24 13:28:36;;;;;;;8.10;4.40;;;;;;;15.99;30.28;101397.72;10348422;28;20245;-74
2021/04/24 13:33:39;;;;;;;6.70;4.32;;;;;;;16.87;30.02;101376.31;10348702;28;20351;-73
2021/04/24 13:38:41;;;;;;;7.53;5.03;;;;;;;17.20;29.43;101375.91;10330131;28;20238;-71
2021/04/24 13:43:43;;;;;;;6.88;5.03;;;;;;;17.95;29.34;101364.31;10351223;28;20265;-73
2021/04/24 13:48:47;;;;;;;6.88;4.80;;;;;;;18.20;29.01;101373.69;10350842;28;20287;-73
2021/04/24 13:53:49;;;;;;;6.53;4.50;;;;;;;17.36;28.83;101360.88;10348267;28;20230;-73
2021/04/24 13:58:52;;;;;;;6.47;4.35;;;;;;;17.89;29.60;101353.03;10349161;28;20734;-72
2021/04/24 14:03:54;;;;;;;7.43;4.45;;;;;;;18.27;29.07;101342.16;10334376;28;20234;-73
2021/04/24 14:09:00;;;;;;;8.77;4.32;;;;;;;19.46;27.10;101345.53;10349362;28;20800;-74
2021/04/24 14:14:02;;;;;;;7.20;4.80;;;;;;;19.92;25.47;101339.88;10343971;28;20638;-72
2021/04/24 14:19:05;;;;;;;5.88;4.00;;;;;;;18.12;28.20;101339.06;10309357;28;20785;-72
2021/04/24 14:24:08;;;;;;;9.07;4.50;;;;;;;17.52;28.63;101322.25;10308819;28;20231;-72
2021/04/24 14:29:11;;;;;;;7.53;4.22;;;;;;;17.96;28.50;101315.22;10309878;28;20346;-72
2021/04/24 14:34:13;;;;;;;7.93;4.20;;;;;;;17.73;28.10;101314.75;10310111;28;20254;-73
2021/04/24 14:39:15;;;;;;;8.65;4.28;;;;;;;17.54;28.28;101303.94;10308687;28;20243;-72
2021/04/24 14:44:17;;;;;;;11.00;4.32;;;;;;;18.02;28.54;101305.63;10309991;28;20235;-72
2021/04/24 14:49:20;;;;;;;7.45;4.43;;;;;;;17.99;28.21;101309.53;10306862;28;20239;-71
2021/04/24 14:54:22;;;;;;;10.18;3.78;;;;;;;18.42;27.89;101299.81;10306976;28;20916;-71
2021/04/24 14:59:24;;;;;;;7.55;3.83;;;;;;;18.13;27.94;101298.16;10307360;28;20234;-72
2021/04/24 15:04:27;;;;;;;8.00;4.05;;;;;;;17.42;27.81;101300.56;10306977;28;20238;-71
2021/04/24 15:09:29;;;;;;;7.57;3.55;;;;;;;16.96;28.50;101307.59;10307012;28;20235;-71
2021/04/24 15:14:31;;;;;;;5.65;3.70;;;;;;;17.51;28.58;101298.81;10316972;28;20258;-74
2021/04/24 15:19:37;;;;;;;6.68;3.75;;;;;;;16.78;29.75;101296.59;10345377;28;20757;-72
2021/04/24 15:24:40;;;;;;;8.38;4.20;;;;;;;17.28;28.25;101296.47;10346976;28;20234;-72
2021/04/24 15:29:42;;;;;;;6.90;3.90;;;;;;;18.16;27.89;101285.28;10333332;28;20742;-71
2021/04/24 15:34:45;;;;;;;9.43;4.05;;;;;;;17.82;27.96;101292.09;10351930;28;20234;-71
2021/04/24 15:39:50;;;;;;;9.65;3.63;;;;;;;18.20;28.05;101284.78;10354219;28;20230;-71
2021/04/24 15:44:53;;;;;;;8.10;3.72;;;;;;;16.56;29.59;101276.91;10355477;28;20231;-73
2021/04/24 15:49:58;;;;;;;5.40;3.40;;;;;;;18.24;27.83;101272.63;10353751;28;20352;-71
2021/04/24 15:55:02;;;;;;;5.55;3.22;;;;;;;19.41;26.59;101279.75;10354395;28;20293;-73
2021/04/24 16:00:06;;;;;;;8.00;3.65;;;;;;;17.90;27.60;101281.34;10351459;28;20780;-71
2021/04/24 16:05:11;;;;;;;6.35;3.58;;;;;;;17.39;28.31;101282.72;10355514;28;20467;-71
2021/04/24 16:10:16;;;;;;;7.07;3.67;;;;;;;17.26;27.89;101271.31;10352747;28;20246;-73
2021/04/24 16:15:20;;;;;;;5.07;3.30;;;;;;;16.78;28.40;101264.03;10352602;28;20234;-71
2021/04/24 16:20:23;;;;;;;6.10;3.40;;;;;;;16.69;28.45;101267.63;10353715;28;20230;-71
2021/04/24 16:25:25;;;;;;;6.40;2.92;;;;;;;17.24;27.67;101265.16;10351641;28;20261;-71
2021/04/24 16:30:27;;;;;;;8.73;3.40;;;;;;;17.00;27.72;101273.72;10351097;28;20661;-71
2021/04/24 16:35:30;;;;;;;7.45;2.95;;;;;;;16.92;28.00;101266.34;10351751;28;20243;-73
2021/04/24 16:40:34;;;;;;;6.00;2.83;;;;;;;17.68;26.86;101268.16;10353308;28;20253;-73
2021/04/24 16:45:35;;;;;;;6.55;3.00;;;;;;;16.90;28.34;101253.91;10350956;28;20916;-73
2021/04/24 16:50:40;;;;;;;7.03;2.95;;;;;;;17.53;27.46;101251.50;10352122;28;20235;-72
2021/04/24 16:55:42;;;;;;;7.47;3.05;;;;;;;17.85;27.04;101237.47;10348829;28;20967;-75
2021/04/24 17:00:44;;;;;;;7.53;2.63;;;;;;;17.51;27.23;101244.50;10353349;28;20230;-73
2021/04/24 17:05:47;;;;;;;4.60;2.22;;;;;;;17.52;27.81;101243.47;10352218;28;20711;-73
2021/04/24 17:10:49;;;;;;;3.53;1.95;;;;;;;17.45;27.21;101240.50;10351666;28;20238;-74
2021/04/24 17:15:51;;;;;;;8.05;2.72;;;;;;;18.39;26.60;101236.72;10331252;28;20242;-73
2021/04/24 17:20:54;;;;;;;5.90;2.38;;;;;;;18.91;25.55;101245.88;10310278;28;20230;-73
2021/04/24 17:25:56;;;;;;;3.70;1.73;;;;;;;17.93;25.71;101248.41;10311440;28;20238;-73
2021/04/24 17:30:58;;;;;;;5.28;1.88;;;;;;;18.27;25.21;101260.56;10279734;28;20240;-75
2021/04/24 17:36:01;;;;;;;5.40;2.15;;;;;;;17.64;25.59;101251.31;10264408;28;20248;-73
2021/04/24 17:41:03;;;;;;;4.80;1.50;;;;;;;16.26;27.41;101263.44;10276823;28;20326;-73
2021/04/24 17:46:05;;;;;;;4.57;1.90;;;;;;;14.38;30.21;101262.59;10310513;28;21020;-73
2021/04/24 17:51:08;;;;;;;5.05;2.03;;;;;;;13.48;31.74;101263.59;10309478;28;20738;-72
2021/04/24 17:56:10;;;;;;;4.57;1.95;;;;;;;12.62;32.90;101269.38;10310442;28;20242;-73
2021/04/24 18:01:12;;;;;;;6.00;1.85;;;;;;;12.13;33.49;101273.84;10307326;28;20277;-73
2021/04/24 18:06:15;;;;;;;3.03;1.80;;;;;;;11.63;33.87;101275.69;10307428;28;20600;-74
2021/04/24 18:11:18;;;;;;;3.42;1.73;;;;;;;11.26;34.58;101283.66;10288848;28;21838;-76
2021/04/24 18:16:26;;;;;;;2.47;1.75;;;;;;;10.77;34.47;101294.19;10332453;28;20329;-76
2021/04/24 18:21:29;;;;;;;3.20;1.52;;;;;;;10.52;34.62;101284.25;10276400;28;20240;-76
2021/04/24 18:26:31;;;;;;;3.17;1.70;;;;;;;10.36;34.80;101300.50;10295056;28;20238;-75
2021/04/24 18:31:33;;;;;;;4.13;1.70;;;;;;;10.06;34.71;101284.56;10309952;28;20242;-75
2021/04/24 18:36:36;;;;;;;2.67;1.60;;;;;;;9.86;34.61;101292.09;10303926;28;20332;-75
2021/04/24 18:41:37;;;;;;;3.83;1.40;;;;;;;9.71;35.06;101301.94;10302953;28;20245;-73
2021/04/24 18:46:41;;;;;;;1.95;1.58;;;;;;;9.54;34.83;101299.44;10308837;28;20238;-73
2021/04/24 18:51:44;;;;;;;3.95;1.67;;;;;;;9.37;35.38;101305.84;10288564;28;20234;-72
2021/04/24 18:56:46;;;;;;;3.58;1.50;;;;;;;9.17;35.51;101311.56;10307362;28;20724;-73
2021/04/24 19:01:48;;;;;;;2.05;1.52;;;;;;;9.05;35.80;101308.69;10306226;28;20227;-73
2021/04/24 19:06:51;;;;;;;3.25;1.50;;;;;;;8.87;36.77;101323.16;10312270;28;20233;-73
2021/04/24 19:11:53;;;;;;;2.30;1.33;;;;;;;8.76;36.94;101323.78;10312159;28;20223;-72
2021/04/24 19:16:56;;;;;;;2.65;1.58;;;;;;;8.69;37.85;101324.25;10318531;28;20238;-73
2021/04/24 19:21:59;;;;;;;1.95;1.45;;;;;;;8.46;38.77;101331.78;10327602;28;20261;-71
2021/04/24 19:27:01;;;;;;;2.35;1.45;;;;;;;8.32;39.36;101337.91;10283410;28;20232;-72
2021/04/24 19:32:03;;;;;;;2.53;1.50;;;;;;;8.25;39.15;101332.97;10273993;28;20235;-73
2021/04/24 19:37:06;;;;;;;3.53;1.90;;;;;;;8.16;39.37;101345.06;10311908;28;20235;-72
2021/04/24 19:42:08;;;;;;;2.58;1.65;;;;;;;8.06;39.69;101347.38;10309759;28;20238;-74
2021/04/24 19:47:10;;;;;;;3.60;2.13;;;;;;;7.91;40.08;101348.22;10294012;28;20242;-74
2021/04/24 19:52:15;;;;;;;5.68;2.17;;;;;;;7.87;40.18;101349.31;10284416;28;20242;-73
2021/04/24 19:57:18;;;;;;;4.93;1.92;;;;;;;7.73;40.34;101350.97;10269269;28;20240;-73
2021/04/24 20:02:19;;;;;;;2.55;1.67;;;;;;;7.63;40.08;101349.72;10272505;28;20236;-73
2021/04/24 20:07:23;;;;;;;4.38;2.03;;;;;;;7.51;40.49;101355.72;10286842;28;20305;-72
2021/04/24 20:12:26;;;;;;;2.80;1.60;;;;;;;7.36;40.90;101364.53;10297470;28;20667;-74
2021/04/24 20:17:27;;;;;;;6.22;2.20;;;;;;;7.26;41.33;101359.66;10309082;28;20238;-73
2021/04/24 20:22:34;;;;;;;4.28;2.00;;;;;;;7.13;41.81;101366.59;10310507;28;20716;-75
2021/04/24 20:27:36;;;;;;;3.50;1.60;;;;;;;6.94;42.62;101372.00;10310003;28;20239;-73
2021/04/24 20:32:39;;;;;;;2.85;1.80;;;;;;;6.88;42.91;101366.94;10299809;28;20234;-74
2021/04/24 20:37:41;;;;;;;4.63;1.83;;;;;;;6.78;43.34;101368.34;10289352;28;20228;-73
2021/04/24 20:42:43;;;;;;;3.45;1.83;;;;;;;6.66;43.83;101374.25;10290253;28;21397;-75
2021/04/24 20:47:46;;;;;;;3.35;1.88;;;;;;;6.61;44.01;101371.84;10256506;28;20238;-73
2021/04/24 20:52:49;;;;;;;4.93;2.08;;;;;;;6.51;44.31;101376.75;10270126;28;20243;-74
2021/04/24 20:57:51;;;;;;;4.88;2.00;;;;;;;6.50;44.53;101383.03;10268443;28;20267;-74
2021/04/24 21:02:53;;;;;;;3.28;1.75;;;;;;;6.39;44.93;101383.56;10275984;28;20258;-73
2021/04/24 21:07:55;;;;;;;4.45;1.95;;;;;;;6.28;45.32;101385.88;10288099;28;20238;-72
2021/04/24 21:12:57;;;;;;;2.63;1.83;;;;;;;6.20;45.88;101387.13;10289570;28;20854;-73
2021/04/24 21:17:59;;;;;;;3.40;2.28;;;;;;;6.07;46.33;101390.38;10289459;28;20232;-73
2021/04/24 21:23:02;;;;;;;4.93;2.10;;;;;;;6.05;46.93;101391.41;10288334;28;20755;-73
2021/04/24 21:28:04;;;;;;;12.18;2.90;;;;;;;5.93;47.57;101382.16;10289629;28;20246;-73
2021/04/24 21:33:06;;;;;;;4.45;2.25;;;;;;;5.81;48.49;101383.56;10290884;28;20314;-74
2021/04/24 21:38:09;;;;;;;8.40;2.73;;;;;;;5.76;49.17;101388.28;10289797;28;20235;-74
2021/04/24 21:43:11;;;;;;;6.87;2.83;;;;;;;5.68;50.04;101388.59;10289014;28;20235;-75
2021/04/24 21:48:13;;;;;;;5.40;2.60;;;;;;;5.61;50.66;101395.13;10310139;28;20804;-75
2021/04/24 21:53:19;;;;;;;8.03;3.00;;;;;;;5.59;50.84;101394.31;10306511;28;20235;-72
2021/04/24 21:58:21;;;;;;;7.30;2.73;;;;;;;5.50;51.51;101395.59;10307163;28;20239;-73
2021/04/24 22:03:28;;;;;;;10.20;2.93;;;;;;;5.32;52.27;101390.19;10302482;28;20239;-73
2021/04/24 22:08:31;;;;;;;5.13;3.10;;;;;;;5.21;52.72;101395.97;10292989;28;20243;-72
2021/04/24 22:13:33;;;;;;;6.80;3.50;;;;;;;5.17;53.11;101397.91;10310366;28;20239;-74
2021/04/24 22:18:36;;;;;;;9.17;4.10;;;;;;;5.12;53.71;101388.41;10308553;28;20249;-75
2021/04/24 22:23:38;;;;;;;8.03;3.40;;;;;;;5.09;54.24;101386.72;10311161;28;20231;-72
2021/04/24 22:28:40;;;;;;;15.10;4.17;;;;;;;5.03;54.62;101390.50;10307810;28;20226;-74
2021/04/24 22:33:42;;;;;;;11.23;3.87;;;;;;;5.02;54.76;101383.47;10310785;28;20246;-73
2021/04/24 22:38:45;;;;;;;10.77;4.50;;;;;;;4.98;55.19;101395.13;10290747;28;20238;-73
2021/04/24 22:43:47;;;;;;;8.27;3.93;;;;;;;4.96;55.46;101396.13;10309229;28;20231;-73
2021/04/24 22:48:50;;;;;;;7.20;3.47;;;;;;;4.87;55.82;101394.72;10310304;28;20831;-72
2021/04/24 22:53:52;;;;;;;7.40;3.60;;;;;;;4.82;56.02;101394.03;10309195;28;20593;-74
2021/04/24 22:58:55;;;;;;;7.20;4.20;;;;;;;4.79;56.28;101399.47;10307138;28;20254;-74
2021/04/24 23:03:57;;;;;;;10.47;3.70;;;;;;;4.74;56.37;101394.34;10306950;28;20726;-74
2021/04/24 23:08:59;;;;;;;7.23;4.10;;;;;;;4.68;56.61;101394.59;10309508;28;20242;-74
2021/04/24 23:14:01;;;;;;;8.20;4.07;;;;;;;4.59;56.66;101395.84;10290407;28;20238;-74
2021/04/24 23:19:04;;;;;;;7.57;3.53;;;;;;;4.55;57.00;101396.00;10306554;28;20758;-74